sensor_id;sensor_type;location;lat;lon;timestamp;P1;durP1;ratioP1;P2;durP2;ratioP2
64653;SDS011;51065;48.884;12.598;2023-06-04T00:02:20;2.13;;;1.00;;
64653;SDS011;51065;48.884;12.598;2023-06-04T00:04:46;1.98;;;0.95;;
64653;SDS011;51065;48.884;12.598;2023-06-04T00:07:11;2.17;;;0.75;;
64653;SDS011;51065;48.884;12.598;2023-06-04T00:09:37;2.90;;;1.00;;
64653;SDS011;51065;48.884;12.598;2023-06-04T00:12:02;3.83;;;1.00;;
64653;SDS011;51065;48.884;12.598;2023-06-04T00:14:28;2.72;;;0.82;;
64653;SDS011;51065;48.884;12.598;2023-06-04T00:16:54;3.85;;;1.13;;
64653;SDS011;51065;48.884;12.598;2023-06-04T00:19:19;2.67;;;1.08;;
64653;SDS011;51065;48.884;12.598;2023-06-04T00:21:45;2.88;;;1.10;;
64653;SDS011;51065;48.884;12.598;2023-06-04T00:24:11;1.83;;;1.05;;
64653;SDS011;51065;48.884;12.598;2023-06-04T00:26:39;2.50;;;0.90;;
64653;SDS011;51065;48.884;12.598;2023-06-04T00:29:05;2.35;;;0.90;;
64653;SDS011;51065;48.884;12.598;2023-06-04T00:31:31;1.88;;;0.95;;
64653;SDS011;51065;48.884;12.598;2023-06-04T00:33:56;2.83;;;1.02;;
64653;SDS011;51065;48.884;12.598;2023-06-04T00:36:22;1.88;;;0.90;;
64653;SDS011;51065;48.884;12.598;2023-06-04T00:38:47;2.20;;;0.98;;
64653;SDS011;51065;48.884;12.598;2023-06-04T00:41:13;3.50;;;0.90;;
64653;SDS011;51065;48.884;12.598;2023-06-04T00:43:38;2.08;;;1.00;;
64653;SDS011;51065;48.884;12.598;2023-06-04T00:46:05;3.40;;;0.82;;
64653;SDS011;51065;48.884;12.598;2023-06-04T00:48:31;2.85;;;1.00;;
64653;SDS011;51065;48.884;12.598;2023-06-04T00:50:57;2.03;;;1.00;;
64653;SDS011;51065;48.884;12.598;2023-06-04T00:53:23;3.35;;;1.05;;
64653;SDS011;51065;48.884;12.598;2023-06-04T00:55:50;2.17;;;0.93;;
64653;SDS011;51065;48.884;12.598;2023-06-04T00:58:16;1.77;;;0.93;;
64653;SDS011;51065;48.884;12.598;2023-06-04T01:00:43;2.05;;;1.00;;
64653;SDS011;51065;48.884;12.598;2023-06-04T01:03:10;3.65;;;0.90;;
64653;SDS011;51065;48.884;12.598;2023-06-04T01:05:40;2.58;;;1.10;;
64653;SDS011;51065;48.884;12.598;2023-06-04T01:08:13;2.47;;;1.00;;
64653;SDS011;51065;48.884;12.598;2023-06-04T01:10:50;1.98;;;0.95;;
64653;SDS011;51065;48.884;12.598;2023-06-04T01:13:20;1.57;;;0.73;;
64653;SDS011;51065;48.884;12.598;2023-06-04T01:15:46;2.22;;;0.98;;
64653;SDS011;51065;48.884;12.598;2023-06-04T01:18:12;2.42;;;1.00;;
64653;SDS011;51065;48.884;12.598;2023-06-04T01:20:49;3.70;;;1.13;;
64653;SDS011;51065;48.884;12.598;2023-06-04T01:23:22;1.77;;;1.08;;
64653;SDS011;51065;48.884;12.598;2023-06-04T01:25:59;1.05;;;0.65;;
64653;SDS011;51065;48.884;12.598;2023-06-04T01:28:28;2.67;;;0.82;;
64653;SDS011;51065;48.884;12.598;2023-06-04T01:30:55;1.88;;;0.85;;
64653;SDS011;51065;48.884;12.598;2023-06-04T01:33:21;3.30;;;1.38;;
64653;SDS011;51065;48.884;12.598;2023-06-04T01:35:47;2.08;;;1.02;;
64653;SDS011;51065;48.884;12.598;2023-06-04T01:38:13;2.67;;;1.10;;
64653;SDS011;51065;48.884;12.598;2023-06-04T01:40:39;1.05;;;0.80;;
64653;SDS011;51065;48.884;12.598;2023-06-04T01:43:05;1.95;;;0.95;;
64653;SDS011;51065;48.884;12.598;2023-06-04T01:45:31;3.63;;;1.05;;
64653;SDS011;51065;48.884;12.598;2023-06-04T01:47:57;2.65;;;1.13;;
64653;SDS011;51065;48.884;12.598;2023-06-04T01:50:23;4.03;;;1.38;;
64653;SDS011;51065;48.884;12.598;2023-06-04T01:52:49;3.80;;;1.23;;
64653;SDS011;51065;48.884;12.598;2023-06-04T01:55:15;3.88;;;1.52;;
64653;SDS011;51065;48.884;12.598;2023-06-04T01:57:42;1.08;;;0.80;;
64653;SDS011;51065;48.884;12.598;2023-06-04T02:00:12;4.10;;;1.40;;
64653;SDS011;51065;48.884;12.598;2023-06-04T02:02:43;1.98;;;1.00;;
64653;SDS011;51065;48.884;12.598;2023-06-04T02:05:10;2.58;;;0.90;;
64653;SDS011;51065;48.884;12.598;2023-06-04T02:07:40;3.65;;;1.05;;
64653;SDS011;51065;48.884;12.598;2023-06-04T02:10:10;2.88;;;1.40;;
64653;SDS011;51065;48.884;12.598;2023-06-04T02:15:17;5.20;;;1.50;;
64653;SDS011;51065;48.884;12.598;2023-06-04T02:17:42;3.40;;;1.30;;
64653;SDS011;51065;48.884;12.598;2023-06-04T02:20:10;3.72;;;0.82;;
64653;SDS011;51065;48.884;12.598;2023-06-04T02:22:36;1.77;;;1.00;;
64653;SDS011;51065;48.884;12.598;2023-06-04T02:25:03;3.65;;;1.17;;
64653;SDS011;51065;48.884;12.598;2023-06-04T02:27:29;2.47;;;1.20;;
64653;SDS011;51065;48.884;12.598;2023-06-04T02:29:55;3.45;;;1.23;;
64653;SDS011;51065;48.884;12.598;2023-06-04T02:32:20;3.20;;;1.08;;
64653;SDS011;51065;48.884;12.598;2023-06-04T02:34:46;1.30;;;0.93;;
64653;SDS011;51065;48.884;12.598;2023-06-04T02:37:11;3.20;;;0.90;;
64653;SDS011;51065;48.884;12.598;2023-06-04T02:39:37;4.05;;;1.52;;
64653;SDS011;51065;48.884;12.598;2023-06-04T02:42:03;2.78;;;1.00;;
64653;SDS011;51065;48.884;12.598;2023-06-04T02:44:28;2.58;;;1.10;;
64653;SDS011;51065;48.884;12.598;2023-06-04T02:46:55;1.60;;;1.05;;
64653;SDS011;51065;48.884;12.598;2023-06-04T02:49:21;2.55;;;1.10;;
64653;SDS011;51065;48.884;12.598;2023-06-04T02:51:47;5.32;;;1.55;;
64653;SDS011;51065;48.884;12.598;2023-06-04T02:54:12;2.22;;;1.23;;
64653;SDS011;51065;48.884;12.598;2023-06-04T02:56:38;4.25;;;1.30;;
64653;SDS011;51065;48.884;12.598;2023-06-04T02:59:04;2.58;;;1.00;;
64653;SDS011;51065;48.884;12.598;2023-06-04T03:01:30;2.83;;;1.27;;
64653;SDS011;51065;48.884;12.598;2023-06-04T03:03:56;3.95;;;1.20;;
64653;SDS011;51065;48.884;12.598;2023-06-04T03:06:28;3.22;;;1.00;;
64653;SDS011;51065;48.884;12.598;2023-06-04T03:08:54;2.60;;;1.05;;
64653;SDS011;51065;48.884;12.598;2023-06-04T03:11:20;4.50;;;1.35;;
64653;SDS011;51065;48.884;12.598;2023-06-04T03:13:46;3.75;;;1.20;;
64653;SDS011;51065;48.884;12.598;2023-06-04T03:16:12;3.63;;;1.27;;
64653;SDS011;51065;48.884;12.598;2023-06-04T03:18:42;3.92;;;1.48;;
64653;SDS011;51065;48.884;12.598;2023-06-04T03:21:08;3.20;;;1.10;;
64653;SDS011;51065;48.884;12.598;2023-06-04T03:23:34;3.05;;;1.00;;
64653;SDS011;51065;48.884;12.598;2023-06-04T03:26:00;3.40;;;1.08;;
64653;SDS011;51065;48.884;12.598;2023-06-04T03:28:27;6.47;;;1.20;;
64653;SDS011;51065;48.884;12.598;2023-06-04T03:30:52;4.55;;;1.08;;
64653;SDS011;51065;48.884;12.598;2023-06-04T03:33:18;5.10;;;1.30;;
64653;SDS011;51065;48.884;12.598;2023-06-04T03:35:43;3.53;;;1.20;;
64653;SDS011;51065;48.884;12.598;2023-06-04T03:38:10;3.10;;;1.40;;
64653;SDS011;51065;48.884;12.598;2023-06-04T03:40:36;3.58;;;1.10;;
64653;SDS011;51065;48.884;12.598;2023-06-04T03:43:01;1.52;;;1.00;;
64653;SDS011;51065;48.884;12.598;2023-06-04T03:45:29;3.33;;;1.30;;
64653;SDS011;51065;48.884;12.598;2023-06-04T03:47:55;2.35;;;1.00;;
64653;SDS011;51065;48.884;12.598;2023-06-04T03:50:20;1.73;;;0.93;;
64653;SDS011;51065;48.884;12.598;2023-06-04T03:52:47;4.95;;;0.98;;
64653;SDS011;51065;48.884;12.598;2023-06-04T03:55:13;4.03;;;1.45;;
64653;SDS011;51065;48.884;12.598;2023-06-04T03:57:39;4.20;;;1.30;;
64653;SDS011;51065;48.884;12.598;2023-06-04T04:00:05;3.33;;;1.20;;
64653;SDS011;51065;48.884;12.598;2023-06-04T04:02:33;2.65;;;1.13;;
64653;SDS011;51065;48.884;12.598;2023-06-04T04:04:58;2.40;;;1.02;;
64653;SDS011;51065;48.884;12.598;2023-06-04T04:07:24;3.15;;;1.20;;
64653;SDS011;51065;48.884;12.598;2023-06-04T04:09:51;2.83;;;1.05;;
64653;SDS011;51065;48.884;12.598;2023-06-04T04:12:17;2.95;;;1.20;;
64653;SDS011;51065;48.884;12.598;2023-06-04T04:14:42;3.55;;;1.10;;
64653;SDS011;51065;48.884;12.598;2023-06-04T04:17:08;4.57;;;1.02;;
64653;SDS011;51065;48.884;12.598;2023-06-04T04:19:34;3.65;;;1.10;;
64653;SDS011;51065;48.884;12.598;2023-06-04T04:21:59;2.38;;;1.40;;
64653;SDS011;51065;48.884;12.598;2023-06-04T04:24:25;3.88;;;1.30;;
64653;SDS011;51065;48.884;12.598;2023-06-04T04:26:52;1.75;;;0.93;;
64653;SDS011;51065;48.884;12.598;2023-06-04T04:29:19;3.35;;;1.10;;
64653;SDS011;51065;48.884;12.598;2023-06-04T04:31:48;2.50;;;1.17;;
64653;SDS011;51065;48.884;12.598;2023-06-04T04:34:14;3.55;;;1.48;;
64653;SDS011;51065;48.884;12.598;2023-06-04T04:36:40;3.95;;;1.27;;
64653;SDS011;51065;48.884;12.598;2023-06-04T04:39:05;1.80;;;1.00;;
64653;SDS011;51065;48.884;12.598;2023-06-04T04:41:31;2.08;;;1.15;;
64653;SDS011;51065;48.884;12.598;2023-06-04T04:44:02;2.45;;;1.10;;
64653;SDS011;51065;48.884;12.598;2023-06-04T04:46:29;4.78;;;1.27;;
64653;SDS011;51065;48.884;12.598;2023-06-04T04:48:55;3.45;;;0.95;;
64653;SDS011;51065;48.884;12.598;2023-06-04T04:51:20;2.38;;;1.10;;
64653;SDS011;51065;48.884;12.598;2023-06-04T04:53:47;1.35;;;0.80;;
64653;SDS011;51065;48.884;12.598;2023-06-04T04:56:12;5.55;;;1.40;;
64653;SDS011;51065;48.884;12.598;2023-06-04T04:58:38;3.55;;;0.93;;
64653;SDS011;51065;48.884;12.598;2023-06-04T05:01:04;4.13;;;1.40;;
64653;SDS011;51065;48.884;12.598;2023-06-04T05:03:29;2.92;;;1.30;;
64653;SDS011;51065;48.884;12.598;2023-06-04T05:05:55;1.83;;;1.00;;
64653;SDS011;51065;48.884;12.598;2023-06-04T05:08:21;2.72;;;0.80;;
64653;SDS011;51065;48.884;12.598;2023-06-04T05:10:46;2.20;;;1.17;;
64653;SDS011;51065;48.884;12.598;2023-06-04T05:13:12;4.90;;;1.30;;
64653;SDS011;51065;48.884;12.598;2023-06-04T05:15:37;2.83;;;1.20;;
64653;SDS011;51065;48.884;12.598;2023-06-04T05:18:04;1.77;;;1.08;;
64653;SDS011;51065;48.884;12.598;2023-06-04T05:20:30;3.30;;;1.45;;
64653;SDS011;51065;48.884;12.598;2023-06-04T05:22:56;1.70;;;0.90;;
64653;SDS011;51065;48.884;12.598;2023-06-04T05:25:21;4.18;;;1.23;;
64653;SDS011;51065;48.884;12.598;2023-06-04T05:27:47;2.03;;;0.93;;
64653;SDS011;51065;48.884;12.598;2023-06-04T05:30:14;2.13;;;1.20;;
64653;SDS011;51065;48.884;12.598;2023-06-04T05:32:40;3.42;;;1.00;;
64653;SDS011;51065;48.884;12.598;2023-06-04T05:35:06;3.35;;;1.52;;
64653;SDS011;51065;48.884;12.598;2023-06-04T05:37:33;1.92;;;1.20;;
64653;SDS011;51065;48.884;12.598;2023-06-04T05:40:03;2.75;;;1.50;;
64653;SDS011;51065;48.884;12.598;2023-06-04T05:42:30;5.18;;;1.05;;
64653;SDS011;51065;48.884;12.598;2023-06-04T05:44:55;1.70;;;1.10;;
64653;SDS011;51065;48.884;12.598;2023-06-04T05:47:21;5.57;;;1.40;;
64653;SDS011;51065;48.884;12.598;2023-06-04T05:49:47;2.38;;;1.33;;
64653;SDS011;51065;48.884;12.598;2023-06-04T05:52:13;3.05;;;1.10;;
64653;SDS011;51065;48.884;12.598;2023-06-04T05:54:38;2.15;;;1.45;;
64653;SDS011;51065;48.884;12.598;2023-06-04T05:57:04;3.10;;;1.17;;
64653;SDS011;51065;48.884;12.598;2023-06-04T05:59:30;2.97;;;1.40;;
64653;SDS011;51065;48.884;12.598;2023-06-04T06:01:56;2.72;;;1.20;;
64653;SDS011;51065;48.884;12.598;2023-06-04T06:04:22;2.35;;;1.02;;
64653;SDS011;51065;48.884;12.598;2023-06-04T06:06:47;3.78;;;1.40;;
64653;SDS011;51065;48.884;12.598;2023-06-04T06:09:16;3.28;;;1.13;;
64653;SDS011;51065;48.884;12.598;2023-06-04T06:11:42;4.95;;;1.67;;
64653;SDS011;51065;48.884;12.598;2023-06-04T06:14:07;2.92;;;1.88;;
64653;SDS011;51065;48.884;12.598;2023-06-04T06:16:33;2.13;;;1.05;;
64653;SDS011;51065;48.884;12.598;2023-06-04T06:18:59;4.07;;;1.10;;
64653;SDS011;51065;48.884;12.598;2023-06-04T06:21:26;3.15;;;1.13;;
64653;SDS011;51065;48.884;12.598;2023-06-04T06:23:52;2.42;;;1.27;;
64653;SDS011;51065;48.884;12.598;2023-06-04T06:26:18;2.83;;;1.27;;
64653;SDS011;51065;48.884;12.598;2023-06-04T06:28:44;4.40;;;1.50;;
64653;SDS011;51065;48.884;12.598;2023-06-04T06:31:09;3.53;;;1.35;;
64653;SDS011;51065;48.884;12.598;2023-06-04T06:33:35;2.08;;;0.98;;
64653;SDS011;51065;48.884;12.598;2023-06-04T06:41:02;4.50;;;1.20;;
64653;SDS011;51065;48.884;12.598;2023-06-04T06:43:27;3.35;;;1.15;;
64653;SDS011;51065;48.884;12.598;2023-06-04T06:45:53;3.42;;;1.05;;
64653;SDS011;51065;48.884;12.598;2023-06-04T06:48:18;4.90;;;1.50;;
64653;SDS011;51065;48.884;12.598;2023-06-04T06:50:44;2.50;;;1.25;;
64653;SDS011;51065;48.884;12.598;2023-06-04T06:53:09;3.72;;;1.50;;
64653;SDS011;51065;48.884;12.598;2023-06-04T06:55:35;2.35;;;1.20;;
64653;SDS011;51065;48.884;12.598;2023-06-04T06:58:00;3.70;;;1.20;;
64653;SDS011;51065;48.884;12.598;2023-06-04T07:00:26;5.47;;;1.50;;
64653;SDS011;51065;48.884;12.598;2023-06-04T07:02:53;1.88;;;1.23;;
64653;SDS011;51065;48.884;12.598;2023-06-04T07:05:19;4.57;;;1.27;;
64653;SDS011;51065;48.884;12.598;2023-06-04T07:07:44;3.22;;;1.30;;
64653;SDS011;51065;48.884;12.598;2023-06-04T07:10:11;1.83;;;1.10;;
64653;SDS011;51065;48.884;12.598;2023-06-04T07:12:37;2.33;;;1.30;;
64653;SDS011;51065;48.884;12.598;2023-06-04T07:15:03;2.13;;;1.23;;
64653;SDS011;51065;48.884;12.598;2023-06-04T07:17:30;3.72;;;1.35;;
64653;SDS011;51065;48.884;12.598;2023-06-04T07:19:55;3.45;;;1.20;;
64653;SDS011;51065;48.884;12.598;2023-06-04T07:22:21;3.78;;;1.58;;
64653;SDS011;51065;48.884;12.598;2023-06-04T07:24:46;2.53;;;1.02;;
64653;SDS011;51065;48.884;12.598;2023-06-04T07:27:12;2.97;;;1.15;;
64653;SDS011;51065;48.884;12.598;2023-06-04T07:29:39;2.63;;;1.38;;
64653;SDS011;51065;48.884;12.598;2023-06-04T07:32:05;3.05;;;1.30;;
64653;SDS011;51065;48.884;12.598;2023-06-04T07:34:31;3.28;;;1.10;;
64653;SDS011;51065;48.884;12.598;2023-06-04T07:36:57;3.35;;;1.33;;
64653;SDS011;51065;48.884;12.598;2023-06-04T07:39:23;3.42;;;1.50;;
64653;SDS011;51065;48.884;12.598;2023-06-04T07:41:48;3.67;;;1.38;;
64653;SDS011;51065;48.884;12.598;2023-06-04T07:44:14;1.95;;;1.13;;
64653;SDS011;51065;48.884;12.598;2023-06-04T07:46:41;2.25;;;1.17;;
64653;SDS011;51065;48.884;12.598;2023-06-04T07:49:06;6.50;;;1.27;;
64653;SDS011;51065;48.884;12.598;2023-06-04T07:51:33;2.03;;;1.13;;
64653;SDS011;51065;48.884;12.598;2023-06-04T07:53:59;3.38;;;1.58;;
64653;SDS011;51065;48.884;12.598;2023-06-04T07:56:25;4.88;;;1.30;;
64653;SDS011;51065;48.884;12.598;2023-06-04T07:58:51;3.88;;;1.20;;
64653;SDS011;51065;48.884;12.598;2023-06-04T08:01:17;2.83;;;1.38;;
64653;SDS011;51065;48.884;12.598;2023-06-04T08:03:43;1.70;;;1.00;;
64653;SDS011;51065;48.884;12.598;2023-06-04T08:06:08;3.03;;;1.10;;
64653;SDS011;51065;48.884;12.598;2023-06-04T08:08:34;3.22;;;1.33;;
64653;SDS011;51065;48.884;12.598;2023-06-04T08:11:00;2.60;;;1.30;;
64653;SDS011;51065;48.884;12.598;2023-06-04T08:13:26;3.63;;;1.38;;
64653;SDS011;51065;48.884;12.598;2023-06-04T08:15:51;3.47;;;1.30;;
64653;SDS011;51065;48.884;12.598;2023-06-04T08:18:17;2.88;;;1.30;;
64653;SDS011;51065;48.884;12.598;2023-06-04T08:20:42;5.40;;;1.55;;
64653;SDS011;51065;48.884;12.598;2023-06-04T08:23:08;2.00;;;1.30;;
64653;SDS011;51065;48.884;12.598;2023-06-04T08:25:33;1.65;;;0.90;;
64653;SDS011;51065;48.884;12.598;2023-06-04T08:27:59;2.22;;;1.45;;
64653;SDS011;51065;48.884;12.598;2023-06-04T08:30:25;1.85;;;1.15;;
64653;SDS011;51065;48.884;12.598;2023-06-04T08:32:52;4.15;;;1.73;;
64653;SDS011;51065;48.884;12.598;2023-06-04T08:35:18;2.80;;;1.20;;
64653;SDS011;51065;48.884;12.598;2023-06-04T08:37:43;2.50;;;1.15;;
64653;SDS011;51065;48.884;12.598;2023-06-04T08:40:09;4.03;;;1.60;;
64653;SDS011;51065;48.884;12.598;2023-06-04T08:42:43;4.30;;;1.40;;
64653;SDS011;51065;48.884;12.598;2023-06-04T08:45:10;4.68;;;1.67;;
64653;SDS011;51065;48.884;12.598;2023-06-04T08:47:37;3.50;;;1.30;;
64653;SDS011;51065;48.884;12.598;2023-06-04T08:50:09;2.38;;;1.10;;
64653;SDS011;51065;48.884;12.598;2023-06-04T08:52:35;3.00;;;1.13;;
64653;SDS011;51065;48.884;12.598;2023-06-04T08:55:03;3.55;;;1.35;;
64653;SDS011;51065;48.884;12.598;2023-06-04T08:57:30;3.35;;;1.25;;
64653;SDS011;51065;48.884;12.598;2023-06-04T08:59:56;2.20;;;1.20;;
64653;SDS011;51065;48.884;12.598;2023-06-04T09:02:21;4.45;;;1.45;;
64653;SDS011;51065;48.884;12.598;2023-06-04T09:04:48;3.58;;;1.10;;
64653;SDS011;51065;48.884;12.598;2023-06-04T09:07:14;3.13;;;1.40;;
64653;SDS011;51065;48.884;12.598;2023-06-04T09:09:42;3.05;;;1.42;;
64653;SDS011;51065;48.884;12.598;2023-06-04T09:12:11;2.88;;;1.67;;
64653;SDS011;51065;48.884;12.598;2023-06-04T09:14:41;4.13;;;1.48;;
64653;SDS011;51065;48.884;12.598;2023-06-04T09:17:07;2.70;;;1.20;;
64653;SDS011;51065;48.884;12.598;2023-06-04T09:19:32;2.72;;;1.40;;
64653;SDS011;51065;48.884;12.598;2023-06-04T09:21:58;2.13;;;1.33;;
64653;SDS011;51065;48.884;12.598;2023-06-04T09:24:38;1.65;;;1.10;;
64653;SDS011;51065;48.884;12.598;2023-06-04T09:27:11;2.63;;;1.35;;
64653;SDS011;51065;48.884;12.598;2023-06-04T09:29:50;5.78;;;1.42;;
64653;SDS011;51065;48.884;12.598;2023-06-04T09:32:23;4.20;;;1.50;;
64653;SDS011;51065;48.884;12.598;2023-06-04T09:34:50;3.20;;;1.48;;
64653;SDS011;51065;48.884;12.598;2023-06-04T09:37:17;2.85;;;1.55;;
64653;SDS011;51065;48.884;12.598;2023-06-04T09:39:44;2.33;;;1.38;;
64653;SDS011;51065;48.884;12.598;2023-06-04T09:42:18;2.70;;;1.73;;
64653;SDS011;51065;48.884;12.598;2023-06-04T09:44:44;1.85;;;1.20;;
64653;SDS011;51065;48.884;12.598;2023-06-04T09:47:13;1.80;;;1.10;;
64653;SDS011;51065;48.884;12.598;2023-06-04T09:49:42;3.05;;;1.58;;
64653;SDS011;51065;48.884;12.598;2023-06-04T09:52:09;2.70;;;1.55;;
64653;SDS011;51065;48.884;12.598;2023-06-04T09:54:35;2.25;;;1.45;;
64653;SDS011;51065;48.884;12.598;2023-06-04T09:57:02;4.05;;;1.77;;
64653;SDS011;51065;48.884;12.598;2023-06-04T09:59:30;4.28;;;2.47;;
64653;SDS011;51065;48.884;12.598;2023-06-04T10:02:00;7.57;;;4.38;;
64653;SDS011;51065;48.884;12.598;2023-06-04T10:04:27;3.10;;;1.85;;
64653;SDS011;51065;48.884;12.598;2023-06-04T10:06:54;4.60;;;1.45;;
64653;SDS011;51065;48.884;12.598;2023-06-04T10:09:20;4.63;;;1.35;;
64653;SDS011;51065;48.884;12.598;2023-06-04T10:11:53;1.75;;;1.20;;
64653;SDS011;51065;48.884;12.598;2023-06-04T10:14:25;4.60;;;2.70;;
64653;SDS011;51065;48.884;12.598;2023-06-04T10:16:59;3.50;;;1.38;;
64653;SDS011;51065;48.884;12.598;2023-06-04T10:19:24;3.65;;;1.80;;
64653;SDS011;51065;48.884;12.598;2023-06-04T10:21:51;4.22;;;1.50;;
64653;SDS011;51065;48.884;12.598;2023-06-04T10:24:18;4.13;;;1.40;;
64653;SDS011;51065;48.884;12.598;2023-06-04T10:26:45;4.15;;;1.42;;
64653;SDS011;51065;48.884;12.598;2023-06-04T10:29:13;2.38;;;1.30;;
64653;SDS011;51065;48.884;12.598;2023-06-04T10:31:39;2.70;;;1.70;;
64653;SDS011;51065;48.884;12.598;2023-06-04T10:34:06;3.85;;;1.50;;
64653;SDS011;51065;48.884;12.598;2023-06-04T10:36:41;2.78;;;1.50;;
64653;SDS011;51065;48.884;12.598;2023-06-04T10:39:10;4.03;;;2.00;;
64653;SDS011;51065;48.884;12.598;2023-06-04T10:41:37;3.42;;;1.60;;
64653;SDS011;51065;48.884;12.598;2023-06-04T10:44:02;2.40;;;1.60;;
64653;SDS011;51065;48.884;12.598;2023-06-04T10:46:46;2.10;;;1.38;;
64653;SDS011;51065;48.884;12.598;2023-06-04T10:49:12;2.00;;;1.40;;
64653;SDS011;51065;48.884;12.598;2023-06-04T10:51:37;4.35;;;1.50;;
64653;SDS011;51065;48.884;12.598;2023-06-04T10:54:03;3.70;;;1.50;;
64653;SDS011;51065;48.884;12.598;2023-06-04T10:56:32;5.03;;;1.38;;
64653;SDS011;51065;48.884;12.598;2023-06-04T10:59:15;3.65;;;1.38;;
64653;SDS011;51065;48.884;12.598;2023-06-04T11:01:42;2.72;;;1.38;;
64653;SDS011;51065;48.884;12.598;2023-06-04T11:04:18;3.03;;;1.65;;
64653;SDS011;51065;48.884;12.598;2023-06-04T11:06:48;3.45;;;1.42;;
64653;SDS011;51065;48.884;12.598;2023-06-04T11:09:27;3.40;;;1.45;;
64653;SDS011;51065;48.884;12.598;2023-06-04T11:11:56;5.13;;;1.80;;
64653;SDS011;51065;48.884;12.598;2023-06-04T11:14:25;2.92;;;1.42;;
64653;SDS011;51065;48.884;12.598;2023-06-04T11:16:51;3.20;;;1.73;;
64653;SDS011;51065;48.884;12.598;2023-06-04T11:19:17;2.70;;;1.60;;
64653;SDS011;51065;48.884;12.598;2023-06-04T11:21:43;3.33;;;1.70;;
64653;SDS011;51065;48.884;12.598;2023-06-04T11:24:11;2.53;;;2.00;;
64653;SDS011;51065;48.884;12.598;2023-06-04T11:26:37;4.60;;;1.80;;
64653;SDS011;51065;48.884;12.598;2023-06-04T11:29:07;4.45;;;1.90;;
64653;SDS011;51065;48.884;12.598;2023-06-04T11:31:42;3.42;;;1.52;;
64653;SDS011;51065;48.884;12.598;2023-06-04T11:34:25;3.72;;;1.65;;
64653;SDS011;51065;48.884;12.598;2023-06-04T11:36:51;2.75;;;1.45;;
64653;SDS011;51065;48.884;12.598;2023-06-04T11:39:17;2.85;;;1.50;;
64653;SDS011;51065;48.884;12.598;2023-06-04T11:41:44;4.15;;;1.55;;
64653;SDS011;51065;48.884;12.598;2023-06-04T11:44:10;3.17;;;1.80;;
64653;SDS011;51065;48.884;12.598;2023-06-04T11:46:40;4.95;;;2.03;;
64653;SDS011;51065;48.884;12.598;2023-06-04T11:49:11;2.50;;;1.63;;
64653;SDS011;51065;48.884;12.598;2023-06-04T11:51:44;3.38;;;1.73;;
64653;SDS011;51065;48.884;12.598;2023-06-04T11:54:11;2.63;;;1.70;;
64653;SDS011;51065;48.884;12.598;2023-06-04T11:56:37;5.13;;;1.90;;
64653;SDS011;51065;48.884;12.598;2023-06-04T11:59:03;2.55;;;1.63;;
64653;SDS011;51065;48.884;12.598;2023-06-04T12:01:31;4.20;;;2.03;;
64653;SDS011;51065;48.884;12.598;2023-06-04T12:03:57;3.90;;;1.83;;
64653;SDS011;51065;48.884;12.598;2023-06-04T12:06:23;4.72;;;2.10;;
64653;SDS011;51065;48.884;12.598;2023-06-04T12:08:50;3.15;;;1.98;;
64653;SDS011;51065;48.884;12.598;2023-06-04T12:11:24;3.20;;;1.98;;
64653;SDS011;51065;48.884;12.598;2023-06-04T12:13:54;3.25;;;1.85;;
64653;SDS011;51065;48.884;12.598;2023-06-04T12:16:21;3.40;;;1.85;;
64653;SDS011;51065;48.884;12.598;2023-06-04T12:18:47;4.70;;;1.98;;
64653;SDS011;51065;48.884;12.598;2023-06-04T12:21:20;5.45;;;2.10;;
64653;SDS011;51065;48.884;12.598;2023-06-04T12:23:51;7.97;;;2.15;;
64653;SDS011;51065;48.884;12.598;2023-06-04T12:26:30;3.80;;;2.15;;
64653;SDS011;51065;48.884;12.598;2023-06-04T12:29:00;6.03;;;2.10;;
64653;SDS011;51065;48.884;12.598;2023-06-04T12:31:27;5.70;;;2.17;;
64653;SDS011;51065;48.884;12.598;2023-06-04T12:33:57;4.50;;;1.80;;
64653;SDS011;51065;48.884;12.598;2023-06-04T12:36:26;2.92;;;1.67;;
64653;SDS011;51065;48.884;12.598;2023-06-04T12:38:53;2.42;;;1.80;;
64653;SDS011;51065;48.884;12.598;2023-06-04T12:41:24;4.40;;;1.83;;
64653;SDS011;51065;48.884;12.598;2023-06-04T12:43:50;3.15;;;1.67;;
64653;SDS011;51065;48.884;12.598;2023-06-04T12:46:16;4.15;;;1.95;;
64653;SDS011;51065;48.884;12.598;2023-06-04T12:48:42;3.92;;;2.10;;
64653;SDS011;51065;48.884;12.598;2023-06-04T12:51:08;4.63;;;2.05;;
64653;SDS011;51065;48.884;12.598;2023-06-04T12:53:35;3.70;;;2.40;;
64653;SDS011;51065;48.884;12.598;2023-06-04T12:56:03;2.50;;;1.73;;
64653;SDS011;51065;48.884;12.598;2023-06-04T12:58:29;3.03;;;1.83;;
64653;SDS011;51065;48.884;12.598;2023-06-04T13:00:55;3.47;;;1.98;;
64653;SDS011;51065;48.884;12.598;2023-06-04T13:03:20;5.70;;;2.10;;
64653;SDS011;51065;48.884;12.598;2023-06-04T13:05:46;2.67;;;1.90;;
64653;SDS011;51065;48.884;12.598;2023-06-04T13:08:11;3.28;;;1.65;;
64653;SDS011;51065;48.884;12.598;2023-06-04T13:10:37;4.05;;;1.65;;
64653;SDS011;51065;48.884;12.598;2023-06-04T13:13:02;4.95;;;1.80;;
64653;SDS011;51065;48.884;12.598;2023-06-04T13:15:28;4.05;;;1.95;;
64653;SDS011;51065;48.884;12.598;2023-06-04T13:17:54;3.10;;;1.77;;
64653;SDS011;51065;48.884;12.598;2023-06-04T13:20:20;2.83;;;1.80;;
64653;SDS011;51065;48.884;12.598;2023-06-04T13:22:45;3.05;;;1.80;;
64653;SDS011;51065;48.884;12.598;2023-06-04T13:25:12;4.13;;;1.83;;
64653;SDS011;51065;48.884;12.598;2023-06-04T13:27:38;6.13;;;2.15;;
64653;SDS011;51065;48.884;12.598;2023-06-04T13:30:04;2.70;;;1.80;;
64653;SDS011;51065;48.884;12.598;2023-06-04T13:32:31;2.80;;;1.80;;
64653;SDS011;51065;48.884;12.598;2023-06-04T13:34:57;3.00;;;1.92;;
64653;SDS011;51065;48.884;12.598;2023-06-04T13:37:23;4.43;;;2.00;;
64653;SDS011;51065;48.884;12.598;2023-06-04T13:39:48;3.50;;;1.90;;
64653;SDS011;51065;48.884;12.598;2023-06-04T13:42:14;2.53;;;2.00;;
64653;SDS011;51065;48.884;12.598;2023-06-04T13:44:39;4.95;;;2.10;;
64653;SDS011;51065;48.884;12.598;2023-06-04T13:47:05;6.43;;;1.92;;
64653;SDS011;51065;48.884;12.598;2023-06-04T13:49:34;2.70;;;1.90;;
64653;SDS011;51065;48.884;12.598;2023-06-04T13:52:00;5.17;;;1.97;;
64653;SDS011;51065;48.884;12.598;2023-06-04T13:54:25;3.53;;;2.03;;
64653;SDS011;51065;48.884;12.598;2023-06-04T13:56:51;5.72;;;1.50;;
64653;SDS011;51065;48.884;12.598;2023-06-04T13:59:17;3.38;;;1.75;;
64653;SDS011;51065;48.884;12.598;2023-06-04T14:01:42;3.28;;;1.75;;
64653;SDS011;51065;48.884;12.598;2023-06-04T14:04:08;3.25;;;2.20;;
64653;SDS011;51065;48.884;12.598;2023-06-04T14:06:36;5.60;;;1.50;;
64653;SDS011;51065;48.884;12.598;2023-06-04T14:09:02;3.63;;;2.00;;
64653;SDS011;51065;48.884;12.598;2023-06-04T14:11:28;3.88;;;1.63;;
64653;SDS011;51065;48.884;12.598;2023-06-04T14:13:54;2.88;;;1.80;;
64653;SDS011;51065;48.884;12.598;2023-06-04T14:16:20;2.15;;;1.48;;
64653;SDS011;51065;48.884;12.598;2023-06-04T14:18:46;5.57;;;2.03;;
64653;SDS011;51065;48.884;12.598;2023-06-04T14:21:11;3.28;;;1.77;;
64653;SDS011;51065;48.884;12.598;2023-06-04T14:23:37;4.32;;;2.00;;
64653;SDS011;51065;48.884;12.598;2023-06-04T14:26:03;3.47;;;1.70;;
64653;SDS011;51065;48.884;12.598;2023-06-04T14:28:29;3.05;;;1.70;;
64653;SDS011;51065;48.884;12.598;2023-06-04T14:30:54;3.33;;;1.90;;
64653;SDS011;51065;48.884;12.598;2023-06-04T14:33:20;2.90;;;1.63;;
64653;SDS011;51065;48.884;12.598;2023-06-04T14:35:45;2.33;;;1.52;;
64653;SDS011;51065;48.884;12.598;2023-06-04T14:38:16;3.33;;;1.70;;
64653;SDS011;51065;48.884;12.598;2023-06-04T14:40:42;4.38;;;1.70;;